createdAt,value
2022-10-18T00:00:07.045Z,5.05
2022-10-18T00:02:34.191Z,5.43
2022-10-18T00:05:01.064Z,5.00
2022-10-18T00:07:27.905Z,5.95
2022-10-18T00:09:54.795Z,6.05
2022-10-18T00:12:21.568Z,5.60
2022-10-18T00:14:51.650Z,5.80
2022-10-18T00:17:18.615Z,5.75
2022-10-18T00:19:46.561Z,5.68
2022-10-18T00:22:13.361Z,6.07
2022-10-18T00:24:40.134Z,6.57
2022-10-18T00:27:06.896Z,6.70
2022-10-18T00:29:33.972Z,6.78
2022-10-18T00:32:00.759Z,6.10
2022-10-18T00:34:27.569Z,6.63
2022-10-18T00:36:55.032Z,7.68
2022-10-18T00:39:22.676Z,7.68
2022-10-18T00:41:50.707Z,8.45
2022-10-18T00:44:17.379Z,8.43
2022-10-18T00:46:47.162Z,8.50
2022-10-18T00:49:23.082Z,7.00
2022-10-18T00:51:57.234Z,6.45
2022-10-18T00:54:24.698Z,7.50
2022-10-18T00:56:51.444Z,6.88
2022-10-18T00:59:20.295Z,7.13
2022-10-18T01:01:47.463Z,6.82
2022-10-18T01:04:16.052Z,7.18
2022-10-18T01:07:16.284Z,6.53
2022-10-18T01:14:38.091Z,6.38
2022-10-18T01:17:22.717Z,5.95
2022-10-18T01:20:53.632Z,6.55
2022-10-18T01:23:51.126Z,5.85
2022-10-18T01:26:48.177Z,6.75
2022-10-18T01:29:32.773Z,7.50
2022-10-18T01:32:05.009Z,6.53
2022-10-18T01:34:35.747Z,7.30
2022-10-18T01:37:08.386Z,7.93
2022-10-18T01:39:41.811Z,7.07
2022-10-18T01:42:12.618Z,7.47
2022-10-18T01:44:41.069Z,7.63
2022-10-18T01:47:10.994Z,9.00
2022-10-18T01:49:37.776Z,8.27
2022-10-18T01:52:04.766Z,7.60
2022-10-18T01:54:39.763Z,7.78
2022-10-18T01:57:36.679Z,8.73
2022-10-18T02:00:11.542Z,8.20
2022-10-18T02:03:04.530Z,8.23
2022-10-18T02:05:47.482Z,8.18
2022-10-18T02:08:46.338Z,7.00
2022-10-18T02:11:17.546Z,7.72
2022-10-18T02:14:04.325Z,7.00
2022-10-18T02:16:50.965Z,6.53
2022-10-18T02:19:38.024Z,7.05
2022-10-18T02:22:07.812Z,6.18
2022-10-18T02:24:47.378Z,6.97
2022-10-18T02:27:14.701Z,6.78
2022-10-18T02:29:42.951Z,6.75
2022-10-18T02:32:35.253Z,6.35
2022-10-18T02:35:11.506Z,6.78
2022-10-18T02:37:39.987Z,6.88
2022-10-18T02:40:10.406Z,6.53
2022-10-18T02:42:45.225Z,7.07
2022-10-18T02:45:13.288Z,6.55
2022-10-18T02:47:40.047Z,6.72
2022-10-18T02:50:07.718Z,6.50
2022-10-18T02:52:34.475Z,6.78
2022-10-18T02:55:01.828Z,7.28
2022-10-18T02:57:28.940Z,7.25
2022-10-18T02:59:55.870Z,7.57
2022-10-18T03:02:22.701Z,6.57
2022-10-18T03:04:49.493Z,6.70
2022-10-18T03:07:16.491Z,7.13
2022-10-18T03:09:43.256Z,6.68
2022-10-18T03:12:10.215Z,6.90
2022-10-18T03:14:36.967Z,6.93
2022-10-18T03:17:03.850Z,6.93
2022-10-18T03:19:30.643Z,6.15
2022-10-18T03:21:57.459Z,7.30
2022-10-18T03:24:24.211Z,6.60
2022-10-18T03:26:50.920Z,6.22
2022-10-18T03:29:17.741Z,6.70
2022-10-18T03:31:44.495Z,6.15
2022-10-18T03:34:11.258Z,5.88
2022-10-18T03:36:38.769Z,5.75
2022-10-18T03:39:05.524Z,6.10
2022-10-18T03:41:32.270Z,6.15
2022-10-18T03:43:58.989Z,5.90
2022-10-18T03:46:25.746Z,6.05
2022-10-18T03:48:52.537Z,6.43
2022-10-18T03:51:19.266Z,5.70
2022-10-18T03:53:46.048Z,6.50
2022-10-18T03:56:12.882Z,6.55
2022-10-18T03:58:39.657Z,6.07
2022-10-18T04:01:06.985Z,6.63
2022-10-18T04:03:33.720Z,7.10
2022-10-18T04:06:00.749Z,7.78
2022-10-18T04:08:27.488Z,7.60
2022-10-18T04:10:54.230Z,8.60
2022-10-18T04:13:20.977Z,8.55
2022-10-18T04:15:47.714Z,8.70
2022-10-18T04:18:14.484Z,8.25
2022-10-18T04:20:41.278Z,9.15
2022-10-18T04:23:08.009Z,8.98
2022-10-18T04:25:34.780Z,8.25
2022-10-18T04:28:01.719Z,7.80
2022-10-18T04:30:28.458Z,7.10
2022-10-18T04:32:55.181Z,7.28
2022-10-18T04:35:24.436Z,7.60
2022-10-18T04:37:51.403Z,7.35
2022-10-18T04:40:19.770Z,7.72
2022-10-18T04:42:47.166Z,7.03
2022-10-18T04:45:13.910Z,7.40
2022-10-18T04:47:40.681Z,7.10
2022-10-18T04:50:07.955Z,6.97
2022-10-18T04:52:34.750Z,6.75
2022-10-18T04:55:01.493Z,7.00
2022-10-18T04:57:28.218Z,6.90
2022-10-18T04:59:54.951Z,6.63
2022-10-18T05:02:21.706Z,14.93
2022-10-18T05:04:48.434Z,8.98
2022-10-18T05:07:15.191Z,11.02
2022-10-18T05:09:41.918Z,9.90
2022-10-18T05:12:08.644Z,7.75
2022-10-18T05:14:35.391Z,7.63
2022-10-18T05:17:02.529Z,6.32
2022-10-18T05:19:29.256Z,6.47
2022-10-18T05:21:56.063Z,7.65
2022-10-18T05:24:25.475Z,8.73
2022-10-18T05:26:54.517Z,7.70
2022-10-18T05:29:21.368Z,8.07
2022-10-18T05:31:49.168Z,11.45
2022-10-18T05:34:16.868Z,15.15
2022-10-18T05:36:43.744Z,11.82
2022-10-18T05:39:10.513Z,16.52
2022-10-18T05:41:37.272Z,12.18
2022-10-18T05:44:07.261Z,16.00
2022-10-18T05:46:34.051Z,14.52
2022-10-18T05:49:00.789Z,13.80
2022-10-18T05:51:27.591Z,17.63
2022-10-18T05:53:54.863Z,19.40
2022-10-18T05:56:21.904Z,14.55
2022-10-18T05:58:51.886Z,11.82
2022-10-18T06:01:18.998Z,9.80
2022-10-18T06:03:45.775Z,7.32
2022-10-18T06:06:14.063Z,6.85
2022-10-18T06:08:42.864Z,6.90
2022-10-18T06:11:13.195Z,7.22
2022-10-18T06:13:46.164Z,6.50
2022-10-18T06:16:14.970Z,5.72
2022-10-18T06:18:42.353Z,6.93
2022-10-18T06:21:10.030Z,6.13
2022-10-18T06:23:36.842Z,7.22
2022-10-18T06:26:08.413Z,5.82
2022-10-18T06:28:36.955Z,6.65
2022-10-18T06:31:05.475Z,6.05
2022-10-18T06:33:34.183Z,6.93
2022-10-18T06:36:11.674Z,7.03
2022-10-18T06:38:38.633Z,6.97
2022-10-18T06:41:06.611Z,6.55
2022-10-18T06:43:33.578Z,7.53
2022-10-18T06:46:04.722Z,8.68
2022-10-18T06:48:32.435Z,8.50
2022-10-18T06:51:02.719Z,9.52
2022-10-18T06:53:33.089Z,8.55
2022-10-18T06:56:05.906Z,8.15
2022-10-18T06:58:33.550Z,7.25
2022-10-18T07:01:06.017Z,6.97
2022-10-18T07:03:34.693Z,8.10
2022-10-18T07:06:06.913Z,11.48
2022-10-18T07:08:34.725Z,11.97
2022-10-18T07:11:01.728Z,12.65
2022-10-18T07:13:33.055Z,12.52
2022-10-18T07:16:06.625Z,12.63
2022-10-18T07:18:40.141Z,13.93
2022-10-18T07:21:10.523Z,10.45
2022-10-18T07:23:40.031Z,7.45
2022-10-18T07:26:29.645Z,6.18
2022-10-18T07:29:16.165Z,6.65
2022-10-18T07:31:42.967Z,6.47
2022-10-18T07:34:13.213Z,5.95
2022-10-18T07:36:40.841Z,6.10
2022-10-18T07:39:08.085Z,6.70
2022-10-18T07:41:35.253Z,6.63
2022-10-18T07:44:02.868Z,6.40
2022-10-18T07:46:29.987Z,6.13
2022-10-18T07:48:59.438Z,6.22
2022-10-18T07:51:27.707Z,6.38
2022-10-18T07:53:54.513Z,6.47
2022-10-18T07:56:21.996Z,6.32
2022-10-18T07:58:54.396Z,6.32
2022-10-18T08:01:24.547Z,6.32
2022-10-18T08:03:52.817Z,6.50
2022-10-18T08:06:22.703Z,6.15
2022-10-18T08:08:49.727Z,6.70
2022-10-18T08:11:22.996Z,6.40
2022-10-18T08:13:50.398Z,7.22
2022-10-18T08:16:24.526Z,6.38
2022-10-18T08:18:51.659Z,6.72
2022-10-18T08:21:20.990Z,6.13
2022-10-18T08:23:48.762Z,6.72
2022-10-18T08:26:21.595Z,6.50
2022-10-18T08:28:54.030Z,7.10
2022-10-18T08:31:25.491Z,6.85
2022-10-18T08:33:52.240Z,6.43
2022-10-18T08:36:19.382Z,7.25
2022-10-18T08:38:46.276Z,7.55
2022-10-18T08:41:36.717Z,7.38
2022-10-18T08:44:25.111Z,7.80
2022-10-18T08:47:03.922Z,7.78
2022-10-18T08:49:46.298Z,7.95
2022-10-18T08:52:24.220Z,9.00
2022-10-18T08:55:36.473Z,9.82
2022-10-18T08:58:26.739Z,9.02
2022-10-18T09:01:27.167Z,9.20
2022-10-18T09:04:26.286Z,9.50
2022-10-18T09:07:01.808Z,10.60
2022-10-18T09:10:07.936Z,9.35
2022-10-18T09:13:00.777Z,9.93
2022-10-18T09:15:46.299Z,9.35
2022-10-18T09:18:57.341Z,8.70
2022-10-18T09:21:51.218Z,9.50
2022-10-18T09:24:43.507Z,9.98
2022-10-18T09:27:22.605Z,9.43
2022-10-18T09:30:01.174Z,10.32
2022-10-18T09:32:57.054Z,10.02
2022-10-18T09:35:50.802Z,9.68
2022-10-18T09:38:21.905Z,10.32
2022-10-18T09:41:08.123Z,10.48
2022-10-18T09:44:03.884Z,10.93
2022-10-18T09:46:38.385Z,11.57
2022-10-18T09:49:22.374Z,13.15
2022-10-18T09:51:50.629Z,11.13
2022-10-18T09:54:38.099Z,12.52
2022-10-18T09:57:10.540Z,13.10
2022-10-18T09:59:44.486Z,13.70
2022-10-18T10:02:18.106Z,12.20
2022-10-18T10:04:45.220Z,14.82
2022-10-18T10:07:25.117Z,15.75
2022-10-18T10:10:22.253Z,14.18
2022-10-18T10:13:03.594Z,14.70
2022-10-18T10:15:35.275Z,15.10
2022-10-18T10:18:20.619Z,16.38
2022-10-18T10:20:51.015Z,16.08
2022-10-18T10:23:28.295Z,14.63
2022-10-18T10:25:59.019Z,16.25
2022-10-18T10:28:37.451Z,15.40
2022-10-18T10:31:24.495Z,16.13
2022-10-18T10:34:20.160Z,15.40
2022-10-18T10:36:53.506Z,15.75
2022-10-18T10:39:24.546Z,15.00
2022-10-18T10:41:58.129Z,15.90
2022-10-18T10:44:35.690Z,15.77
2022-10-18T10:47:03.382Z,15.13
2022-10-18T10:49:48.161Z,15.60
2022-10-18T10:52:28.528Z,16.63
2022-10-18T10:57:50.035Z,14.88
2022-10-18T11:00:41.854Z,15.57
2022-10-18T11:03:30.964Z,14.70
2022-10-18T11:06:00.653Z,13.40
2022-10-18T11:08:36.087Z,14.55
2022-10-18T11:11:23.021Z,13.50
2022-10-18T11:14:13.618Z,14.02
2022-10-18T11:19:50.168Z,14.32
2022-10-18T11:22:22.192Z,13.40
2022-10-18T11:24:48.936Z,13.13
2022-10-18T11:27:37.134Z,13.57
2022-10-18T11:30:37.487Z,12.95
2022-10-18T11:33:44.028Z,13.18
2022-10-18T11:36:33.962Z,14.23
2022-10-18T11:39:06.931Z,14.48
2022-10-18T11:41:45.377Z,13.57
2022-10-18T11:44:22.298Z,13.77
2022-10-18T11:47:10.038Z,13.75
2022-10-18T11:50:36.442Z,13.70
2022-10-18T11:53:36.548Z,12.68
2022-10-18T11:56:20.961Z,12.63
2022-10-18T11:59:21.906Z,13.02
2022-10-18T12:01:54.593Z,12.93
2022-10-18T12:04:34.257Z,13.07
2022-10-18T12:07:05.544Z,11.63
2022-10-18T12:09:44.414Z,11.63
2022-10-18T12:12:46.103Z,10.40
2022-10-18T12:15:20.675Z,10.25
2022-10-18T12:17:55.097Z,9.70
2022-10-18T12:20:29.474Z,8.70
2022-10-18T12:23:13.944Z,10.25
2022-10-18T12:25:49.597Z,10.15
2022-10-18T12:28:28.327Z,9.73
2022-10-18T12:31:20.676Z,9.35
2022-10-18T12:33:55.566Z,8.60
2022-10-18T12:36:22.229Z,7.65
2022-10-18T12:39:00.353Z,7.30
2022-10-18T12:41:30.491Z,7.20
2022-10-18T12:44:18.707Z,7.55
2022-10-18T12:46:55.583Z,7.57
2022-10-18T12:49:33.768Z,8.48
2022-10-18T12:52:19.115Z,8.07
2022-10-18T12:55:02.733Z,8.27
2022-10-18T12:57:52.284Z,7.57
2022-10-18T13:00:31.573Z,7.38
2022-10-18T13:03:10.740Z,8.25
2022-10-18T13:05:54.917Z,7.75
2022-10-18T13:08:34.273Z,7.40
2022-10-18T13:11:10.347Z,7.72
2022-10-18T13:14:06.490Z,8.38
2022-10-18T13:16:46.012Z,7.28
2022-10-18T13:19:29.283Z,7.60
2022-10-18T13:22:31.176Z,7.25
2022-10-18T13:25:15.580Z,7.40
2022-10-18T13:28:01.401Z,7.70
2022-10-18T13:30:48.369Z,7.68
2022-10-18T13:33:35.126Z,8.02
2022-10-18T13:36:23.055Z,7.10
2022-10-18T13:38:57.550Z,7.80
2022-10-18T13:41:34.493Z,7.35
2022-10-18T13:44:02.311Z,7.57
2022-10-18T13:46:34.894Z,6.88
2022-10-18T13:49:13.661Z,6.63
2022-10-18T13:52:14.744Z,6.22
2022-10-18T13:55:36.594Z,6.82
2022-10-18T13:58:34.920Z,6.85
2022-10-18T14:02:05.833Z,5.88
2022-10-18T14:05:16.872Z,5.20
2022-10-18T14:07:51.556Z,5.50
2022-10-18T14:10:57.390Z,5.47
2022-10-18T14:13:38.530Z,5.82
2022-10-18T14:16:46.059Z,6.80
2022-10-18T14:19:30.146Z,6.50
2022-10-18T14:22:16.809Z,6.40
2022-10-18T14:24:56.186Z,6.25
2022-10-18T14:27:28.874Z,6.18
2022-10-18T14:30:18.354Z,6.32
2022-10-18T14:32:51.966Z,6.95
2022-10-18T14:35:33.164Z,6.60
2022-10-18T14:38:02.098Z,6.15
2022-10-18T14:40:39.700Z,5.72
2022-10-18T14:43:09.395Z,4.88
2022-10-18T14:45:36.275Z,5.10
2022-10-18T14:48:21.410Z,5.63
2022-10-18T14:50:59.270Z,5.45
2022-10-18T14:53:32.500Z,5.72
2022-10-18T14:56:01.139Z,5.65
2022-10-18T14:58:28.912Z,6.20
2022-10-18T15:00:55.743Z,6.38
2022-10-18T15:03:23.303Z,6.70
2022-10-18T15:06:01.410Z,7.10
2022-10-18T15:08:37.398Z,8.23
2022-10-18T15:11:08.297Z,7.50
2022-10-18T15:13:52.212Z,7.60
2022-10-18T15:16:20.930Z,6.72
2022-10-18T15:19:16.320Z,7.32
2022-10-18T15:21:59.132Z,7.05
2022-10-18T15:24:38.478Z,7.55
2022-10-18T15:27:29.857Z,7.55
2022-10-18T15:29:56.940Z,7.43
2022-10-18T15:32:30.785Z,7.28
2022-10-18T15:35:23.499Z,6.55
2022-10-18T15:37:53.329Z,7.45
2022-10-18T15:40:22.763Z,6.68
2022-10-18T15:43:19.924Z,7.40
2022-10-18T15:50:55.440Z,7.03
2022-10-18T15:53:25.256Z,7.47
2022-10-18T15:56:10.628Z,7.90
2022-10-18T15:58:42.235Z,7.70
2022-10-18T16:01:15.295Z,11.02
2022-10-18T16:03:43.288Z,10.90
2022-10-18T16:06:14.602Z,29.35
2022-10-18T16:08:50.819Z,9.95
2022-10-18T16:11:20.054Z,8.85
2022-10-18T16:13:47.568Z,8.18
2022-10-18T16:16:19.197Z,8.70
2022-10-18T16:18:46.346Z,8.25
2022-10-18T16:21:22.927Z,8.95
2022-10-18T16:23:50.292Z,8.00
2022-10-18T16:26:18.695Z,8.25
2022-10-18T16:28:46.564Z,8.85
2022-10-18T16:31:22.850Z,7.88
2022-10-18T16:33:51.386Z,7.50
2022-10-18T16:36:22.269Z,7.53
2022-10-18T16:38:50.070Z,7.53
2022-10-18T16:41:17.735Z,7.25
2022-10-18T16:43:47.403Z,7.80
2022-10-18T16:46:24.215Z,6.90
2022-10-18T16:48:51.624Z,7.40
2022-10-18T16:51:18.432Z,8.20
2022-10-18T16:53:46.074Z,7.38
2022-10-18T16:56:26.000Z,7.75
2022-10-18T16:58:53.678Z,7.75
2022-10-18T17:01:22.711Z,7.85
2022-10-18T17:03:53.807Z,7.43
2022-10-18T17:06:27.712Z,8.07
2022-10-18T17:08:55.763Z,7.88
2022-10-18T17:11:25.004Z,7.15
2022-10-18T17:13:52.081Z,7.55
2022-10-18T17:16:52.312Z,7.25
2022-10-18T17:21:49.257Z,7.70
2022-10-18T17:24:15.979Z,8.65
2022-10-18T17:26:42.811Z,8.13
2022-10-18T17:29:09.878Z,9.10
2022-10-18T17:31:37.219Z,8.38
2022-10-18T17:34:04.449Z,9.35
2022-10-18T17:36:33.273Z,10.95
2022-10-18T17:39:00.192Z,10.68
2022-10-18T17:41:27.568Z,9.90
2022-10-18T17:43:54.327Z,10.35
2022-10-18T17:46:21.246Z,17.02
2022-10-18T17:48:48.096Z,14.57
2022-10-18T17:51:17.057Z,14.63
2022-10-18T17:53:44.284Z,12.30
2022-10-18T17:56:12.976Z,14.10
2022-10-18T17:58:43.073Z,15.07
2022-10-18T18:01:23.026Z,14.43
2022-10-18T18:03:50.577Z,13.15
2022-10-18T18:06:36.213Z,13.13
2022-10-18T18:09:10.988Z,12.10
2022-10-18T18:11:39.819Z,12.90
2022-10-18T18:14:09.795Z,14.18
2022-10-18T18:16:40.692Z,14.00
2022-10-18T18:19:09.918Z,15.15
2022-10-18T18:21:38.051Z,14.55
2022-10-18T18:24:05.218Z,28.98
2022-10-18T18:26:34.555Z,18.25
2022-10-18T18:31:34.355Z,20.48
2022-10-18T18:34:05.543Z,21.23
2022-10-18T18:36:32.542Z,17.10
2022-10-18T18:38:59.844Z,16.73
2022-10-18T18:41:28.412Z,16.77
2022-10-18T18:44:01.628Z,16.80
2022-10-18T18:46:32.868Z,17.30
2022-10-18T18:49:00.142Z,17.63
2022-10-18T18:51:27.610Z,15.38
2022-10-18T18:53:54.608Z,14.50
2022-10-18T18:56:24.222Z,14.45
2022-10-18T18:58:53.105Z,14.77
2022-10-18T19:01:28.399Z,14.70
2022-10-18T19:03:56.874Z,10.77
2022-10-18T19:06:30.563Z,9.57
2022-10-18T19:09:03.716Z,7.82
2022-10-18T19:11:35.199Z,9.30
2022-10-18T19:14:03.582Z,11.25
2022-10-18T19:16:45.599Z,12.38
2022-10-18T19:19:16.279Z,15.95
2022-10-18T19:21:46.789Z,24.52
2022-10-18T19:24:14.084Z,20.55
2022-10-18T19:26:45.079Z,13.20
2022-10-18T19:29:24.560Z,12.77
2022-10-18T19:31:53.779Z,12.32
2022-10-18T19:34:23.312Z,11.98
2022-10-18T19:36:51.226Z,11.93
2022-10-18T19:39:40.997Z,12.10
2022-10-18T19:42:14.658Z,10.07
2022-10-18T19:44:44.002Z,12.63
2022-10-18T19:47:14.154Z,11.85
2022-10-18T19:49:44.335Z,10.98
2022-10-18T19:52:12.337Z,11.15
2022-10-18T19:54:39.438Z,10.77
2022-10-18T19:57:06.850Z,12.27
2022-10-18T19:59:35.778Z,12.98
2022-10-18T20:02:04.591Z,13.30
2022-10-18T20:04:34.380Z,12.57
2022-10-18T20:07:02.653Z,13.23
2022-10-18T20:09:29.740Z,13.32
2022-10-18T20:11:56.681Z,13.52
2022-10-18T20:14:23.524Z,14.52
2022-10-18T20:16:50.338Z,15.13
2022-10-18T20:19:17.078Z,13.85
2022-10-18T20:21:43.905Z,11.93
2022-10-18T20:24:11.806Z,11.43
2022-10-18T20:26:39.574Z,9.85
2022-10-18T20:29:07.713Z,10.27
2022-10-18T20:31:38.352Z,10.05
2022-10-18T20:34:10.043Z,10.75
2022-10-18T20:36:37.344Z,10.50
2022-10-18T20:39:04.909Z,10.45
2022-10-18T20:41:35.128Z,9.25
2022-10-18T20:44:07.021Z,9.43
2022-10-18T20:46:36.595Z,8.48
2022-10-18T20:49:06.552Z,7.93
2022-10-18T20:51:34.189Z,8.18
2022-10-18T20:56:34.027Z,8.23
2022-10-18T20:59:01.057Z,7.45
2022-10-18T21:01:31.781Z,7.35
2022-10-18T21:04:02.190Z,7.55
2022-10-18T21:06:34.479Z,7.32
2022-10-18T21:09:05.779Z,7.20
2022-10-18T21:11:37.813Z,6.82
2022-10-18T21:14:06.411Z,6.65
2022-10-18T21:16:35.340Z,6.95
2022-10-18T21:19:17.545Z,6.22
2022-10-18T21:21:47.210Z,6.32
2022-10-18T21:24:14.423Z,5.97
2022-10-18T21:26:41.411Z,6.00
2022-10-18T21:29:08.274Z,5.90
2022-10-18T21:31:39.038Z,5.93
2022-10-18T21:34:15.754Z,6.45
2022-10-18T21:36:45.021Z,5.80
2022-10-18T21:39:20.713Z,6.03
2022-10-18T21:41:48.634Z,5.53
2022-10-18T21:44:16.692Z,5.45
2022-10-18T21:46:43.744Z,5.47
2022-10-18T21:49:11.281Z,4.93
2022-10-18T21:51:38.767Z,5.63
2022-10-18T21:54:09.817Z,5.53
2022-10-18T21:56:36.670Z,5.88
2022-10-18T21:59:04.977Z,5.93
2022-10-18T22:01:38.070Z,5.97
2022-10-18T22:06:47.974Z,5.57
2022-10-18T22:09:14.915Z,5.65
2022-10-18T22:11:46.040Z,5.85
2022-10-18T22:14:12.977Z,5.00
2022-10-18T22:16:39.774Z,5.30
2022-10-18T22:19:07.257Z,5.50
2022-10-18T22:21:34.751Z,5.65
2022-10-18T22:24:08.881Z,6.00
2022-10-18T22:26:39.286Z,5.95
2022-10-18T22:29:16.834Z,6.28
2022-10-18T22:31:47.929Z,5.80
2022-10-18T22:34:18.721Z,6.03
2022-10-18T22:36:46.082Z,5.53
2022-10-18T22:39:14.386Z,5.97
2022-10-18T22:41:41.977Z,5.80
2022-10-18T22:44:12.170Z,5.88
2022-10-18T22:46:40.558Z,5.93
2022-10-18T22:49:07.884Z,5.80
2022-10-18T22:54:02.627Z,5.97
2022-10-18T22:56:29.596Z,5.82
2022-10-18T22:58:56.368Z,5.88
2022-10-18T23:01:24.036Z,5.53
2022-10-18T23:03:58.926Z,5.30
2022-10-18T23:06:35.361Z,5.38
2022-10-18T23:09:06.290Z,5.32
2022-10-18T23:11:35.099Z,5.75
2022-10-18T23:14:03.900Z,5.35
2022-10-18T23:16:31.537Z,4.75
2022-10-18T23:18:59.557Z,4.93
2022-10-18T23:21:28.026Z,5.18
2022-10-18T23:23:56.467Z,4.68
2022-10-18T23:26:27.103Z,5.28
2022-10-18T23:28:55.167Z,5.45
2022-10-18T23:31:29.930Z,4.90
2022-10-18T23:33:59.929Z,5.30
2022-10-18T23:36:27.193Z,5.05
2022-10-18T23:38:54.132Z,5.25
2022-10-18T23:41:20.940Z,5.18
2022-10-18T23:43:47.848Z,5.35
2022-10-18T23:46:16.608Z,5.05
2022-10-18T23:48:43.976Z,5.03
2022-10-18T23:51:10.885Z,5.00
2022-10-18T23:53:38.027Z,5.00
2022-10-18T23:56:09.295Z,5.40
2022-10-18T23:58:37.314Z,4.55
